Terminal Aerodrome Forecast
Issued by NWS

Home | Current Version | Previous Version | Text Only | Print | Product List | Glossary On
Versions: 1 2 3 4 5 6 7 8 9 10 11 12
000
FTUS45 KVEF 191700
TAFBIH
TAF
KBIH 191720Z 1918/2018 16010KT P6SM SCT100 BKN250
     FM192300 28009KT P6SM SCT100 BKN250
     FM200400 34007KT P6SM SCT250=

USA.gov is the U.S. government's official web portal to all federal, state and local government web resources and services.